sensor_id;sensor_type;location;lat;lon;timestamp;pressure;altitude;pressure_sealevel;temperature;humidity
77288;BME280;66345;42.694;23.346;2024-03-08T00:01:01;95605.22;;;6.07;79.10
77288;BME280;66345;42.694;23.346;2024-03-08T00:03:26;95598.16;;;6.16;79.43
77288;BME280;66345;42.694;23.346;2024-03-08T00:05:52;95606.19;;;6.06;80.00
77288;BME280;66345;42.694;23.346;2024-03-08T00:08:17;95598.13;;;5.81;79.80
77288;BME280;66345;42.694;23.346;2024-03-08T00:10:43;95592.00;;;5.73;80.80
77288;BME280;66345;42.694;23.346;2024-03-08T00:13:09;95593.53;;;5.83;80.22
77288;BME280;66345;42.694;23.346;2024-03-08T00:15:34;95586.69;;;5.91;80.22
77288;BME280;66345;42.694;23.346;2024-03-08T00:18:00;95595.94;;;6.03;80.11
77288;BME280;66345;42.694;23.346;2024-03-08T00:20:25;95591.72;;;6.10;79.54
77288;BME280;66345;42.694;23.346;2024-03-08T00:22:51;95600.75;;;6.07;80.01
77288;BME280;66345;42.694;23.346;2024-03-08T00:25:16;95587.75;;;6.06;80.28
77288;BME280;66345;42.694;23.346;2024-03-08T00:27:42;95588.59;;;6.15;79.69
77288;BME280;66345;42.694;23.346;2024-03-08T00:30:08;95589.44;;;6.15;80.51
77288;BME280;66345;42.694;23.346;2024-03-08T00:32:34;95586.22;;;5.95;80.77
77288;BME280;66345;42.694;23.346;2024-03-08T00:34:59;95592.03;;;5.81;81.66
77288;BME280;66345;42.694;23.346;2024-03-08T00:37:25;95588.38;;;5.74;82.29
77288;BME280;66345;42.694;23.346;2024-03-08T00:39:51;95581.25;;;5.66;83.24
77288;BME280;66345;42.694;23.346;2024-03-08T00:42:17;95584.63;;;5.76;83.31
77288;BME280;66345;42.694;23.346;2024-03-08T00:44:43;95583.88;;;5.66;84.09
77288;BME280;66345;42.694;23.346;2024-03-08T00:47:09;95582.66;;;5.78;83.70
77288;BME280;66345;42.694;23.346;2024-03-08T00:49:35;95579.81;;;5.72;83.76
77288;BME280;66345;42.694;23.346;2024-03-08T00:52:02;95582.34;;;5.55;83.93
77288;BME280;66345;42.694;23.346;2024-03-08T00:54:27;95580.91;;;5.61;83.68
77288;BME280;66345;42.694;23.346;2024-03-08T00:56:53;95562.94;;;5.56;84.48
77288;BME280;66345;42.694;23.346;2024-03-08T00:59:18;95570.72;;;5.66;83.87
77288;BME280;66345;42.694;23.346;2024-03-08T01:01:44;95560.97;;;5.58;83.68
77288;BME280;66345;42.694;23.346;2024-03-08T01:04:10;95561.72;;;5.43;85.33
77288;BME280;66345;42.694;23.346;2024-03-08T01:09:25;95563.34;;;5.44;85.56
77288;BME280;66345;42.694;23.346;2024-03-08T01:11:52;95556.75;;;5.40;86.17
77288;BME280;66345;42.694;23.346;2024-03-08T01:14:20;95559.84;;;5.35;85.77
77288;BME280;66345;42.694;23.346;2024-03-08T01:16:48;95559.72;;;5.37;85.35
77288;BME280;66345;42.694;23.346;2024-03-08T01:19:13;95547.03;;;5.32;85.64
77288;BME280;66345;42.694;23.346;2024-03-08T01:21:39;95549.75;;;5.22;86.06
77288;BME280;66345;42.694;23.346;2024-03-08T01:24:05;95549.31;;;5.09;86.55
77288;BME280;66345;42.694;23.346;2024-03-08T01:26:30;95551.41;;;5.23;86.48
77288;BME280;66345;42.694;23.346;2024-03-08T01:28:56;95543.81;;;5.20;85.91
77288;BME280;66345;42.694;23.346;2024-03-08T01:31:21;95542.75;;;5.31;85.11
77288;BME280;66345;42.694;23.346;2024-03-08T01:33:47;95529.09;;;5.36;85.14
77288;BME280;66345;42.694;23.346;2024-03-08T01:36:13;95538.25;;;5.23;85.42
77288;BME280;66345;42.694;23.346;2024-03-08T01:38:42;95520.50;;;5.25;85.38
77288;BME280;66345;42.694;23.346;2024-03-08T01:41:08;95540.03;;;5.49;83.96
77288;BME280;66345;42.694;23.346;2024-03-08T01:43:34;95525.72;;;5.51;83.06
77288;BME280;66345;42.694;23.346;2024-03-08T01:46:00;95542.75;;;5.65;83.68
77288;BME280;66345;42.694;23.346;2024-03-08T01:48:30;95536.16;;;5.61;83.32
77288;BME280;66345;42.694;23.346;2024-03-08T01:50:57;95539.63;;;5.62;82.85
77288;BME280;66345;42.694;23.346;2024-03-08T01:53:24;95533.41;;;5.71;82.54
77288;BME280;66345;42.694;23.346;2024-03-08T01:55:52;95531.88;;;5.60;83.18
77288;BME280;66345;42.694;23.346;2024-03-08T01:58:20;95531.56;;;5.63;83.05
77288;BME280;66345;42.694;23.346;2024-03-08T02:00:48;95525.31;;;5.64;82.43
77288;BME280;66345;42.694;23.346;2024-03-08T02:03:17;95526.69;;;5.76;82.08
77288;BME280;66345;42.694;23.346;2024-03-08T02:05:42;95525.91;;;5.84;81.82
77288;BME280;66345;42.694;23.346;2024-03-08T02:08:09;95523.44;;;5.82;80.82
77288;BME280;66345;42.694;23.346;2024-03-08T02:10:43;95527.97;;;5.72;81.59
77288;BME280;66345;42.694;23.346;2024-03-08T02:13:10;95531.13;;;5.76;82.86
77288;BME280;66345;42.694;23.346;2024-03-08T02:18:17;95529.63;;;5.73;82.48
77288;BME280;66345;42.694;23.346;2024-03-08T02:20:43;95534.22;;;5.71;81.89
77288;BME280;66345;42.694;23.346;2024-03-08T02:23:08;95525.41;;;5.46;82.21
77288;BME280;66345;42.694;23.346;2024-03-08T02:25:35;95542.94;;;5.38;82.37
77288;BME280;66345;42.694;23.346;2024-03-08T02:28:00;95531.47;;;5.47;81.96
77288;BME280;66345;42.694;23.346;2024-03-08T02:30:26;95541.06;;;5.56;81.49
77288;BME280;66345;42.694;23.346;2024-03-08T02:32:55;95541.63;;;5.42;82.98
77288;BME280;66345;42.694;23.346;2024-03-08T02:35:21;95531.66;;;5.45;80.95
77288;BME280;66345;42.694;23.346;2024-03-08T02:37:46;95531.97;;;5.50;81.01
77288;BME280;66345;42.694;23.346;2024-03-08T02:40:13;95547.69;;;5.60;80.47
77288;BME280;66345;42.694;23.346;2024-03-08T02:42:39;95537.78;;;5.28;79.42
77288;BME280;66345;42.694;23.346;2024-03-08T02:45:05;95539.78;;;5.60;78.86
77288;BME280;66345;42.694;23.346;2024-03-08T02:47:31;95555.34;;;5.45;75.94
77288;BME280;66345;42.694;23.346;2024-03-08T02:49:57;95559.59;;;5.46;75.51
77288;BME280;66345;42.694;23.346;2024-03-08T02:52:22;95543.63;;;5.40;77.01
77288;BME280;66345;42.694;23.346;2024-03-08T02:54:48;95533.97;;;5.22;76.24
77288;BME280;66345;42.694;23.346;2024-03-08T02:57:15;95547.22;;;5.39;75.42
77288;BME280;66345;42.694;23.346;2024-03-08T02:59:41;95537.97;;;5.35;75.03
77288;BME280;66345;42.694;23.346;2024-03-08T03:02:07;95522.16;;;5.26;75.69
77288;BME280;66345;42.694;23.346;2024-03-08T03:04:32;95537.72;;;5.46;75.75
77288;BME280;66345;42.694;23.346;2024-03-08T03:07:00;95545.41;;;5.39;75.00
77288;BME280;66345;42.694;23.346;2024-03-08T03:09:26;95550.53;;;5.41;74.67
77288;BME280;66345;42.694;23.346;2024-03-08T03:11:55;95539.50;;;5.37;73.00
77288;BME280;66345;42.694;23.346;2024-03-08T03:14:22;95542.06;;;5.29;74.02
77288;BME280;66345;42.694;23.346;2024-03-08T03:16:47;95543.94;;;5.37;73.88
77288;BME280;66345;42.694;23.346;2024-03-08T03:19:13;95552.22;;;5.50;73.45
77288;BME280;66345;42.694;23.346;2024-03-08T03:21:40;95551.38;;;5.49;73.43
77288;BME280;66345;42.694;23.346;2024-03-08T03:24:08;95561.09;;;5.49;72.81
77288;BME280;66345;42.694;23.346;2024-03-08T03:26:40;95556.31;;;5.44;72.57
77288;BME280;66345;42.694;23.346;2024-03-08T03:29:06;95550.34;;;5.42;72.69
77288;BME280;66345;42.694;23.346;2024-03-08T03:31:34;95557.78;;;5.21;73.55
77288;BME280;66345;42.694;23.346;2024-03-08T03:33:59;95564.84;;;5.20;73.51
77288;BME280;66345;42.694;23.346;2024-03-08T03:36:28;95561.56;;;5.18;72.85
77288;BME280;66345;42.694;23.346;2024-03-08T03:38:54;95573.72;;;5.19;73.94
77288;BME280;66345;42.694;23.346;2024-03-08T03:41:30;95576.06;;;5.22;75.06
77288;BME280;66345;42.694;23.346;2024-03-08T03:43:56;95565.09;;;5.09;74.40
77288;BME280;66345;42.694;23.346;2024-03-08T03:46:21;95568.47;;;5.19;73.98
77288;BME280;66345;42.694;23.346;2024-03-08T03:48:47;95570.28;;;5.19;74.47
77288;BME280;66345;42.694;23.346;2024-03-08T03:51:12;95582.44;;;5.20;74.66
77288;BME280;66345;42.694;23.346;2024-03-08T03:53:40;95590.59;;;5.09;76.03
77288;BME280;66345;42.694;23.346;2024-03-08T03:56:07;95574.59;;;5.02;75.75
77288;BME280;66345;42.694;23.346;2024-03-08T03:58:32;95589.09;;;4.88;75.97
77288;BME280;66345;42.694;23.346;2024-03-08T04:00:58;95583.47;;;5.01;75.89
77288;BME280;66345;42.694;23.346;2024-03-08T04:03:23;95587.56;;;5.04;74.94
77288;BME280;66345;42.694;23.346;2024-03-08T04:05:49;95593.66;;;5.04;75.73
77288;BME280;66345;42.694;23.346;2024-03-08T04:08:14;95599.84;;;4.95;76.35
77288;BME280;66345;42.694;23.346;2024-03-08T04:10:41;95600.59;;;4.87;76.37
77288;BME280;66345;42.694;23.346;2024-03-08T04:13:07;95598.78;;;4.88;76.61
77288;BME280;66345;42.694;23.346;2024-03-08T04:15:34;95604.78;;;4.80;76.54
77288;BME280;66345;42.694;23.346;2024-03-08T04:18:00;95595.94;;;4.81;76.76
77288;BME280;66345;42.694;23.346;2024-03-08T04:20:26;95613.56;;;4.89;77.13
77288;BME280;66345;42.694;23.346;2024-03-08T04:22:51;95611.78;;;4.89;77.38
77288;BME280;66345;42.694;23.346;2024-03-08T04:25:18;95607.34;;;4.90;77.30
77288;BME280;66345;42.694;23.346;2024-03-08T04:27:45;95618.16;;;4.87;77.54
77288;BME280;66345;42.694;23.346;2024-03-08T04:30:12;95620.94;;;5.03;77.57
77288;BME280;66345;42.694;23.346;2024-03-08T04:32:38;95616.13;;;5.16;78.45
77288;BME280;66345;42.694;23.346;2024-03-08T04:35:03;95619.34;;;5.10;77.13
77288;BME280;66345;42.694;23.346;2024-03-08T04:37:29;95603.44;;;4.94;77.61
77288;BME280;66345;42.694;23.346;2024-03-08T04:39:55;95619.50;;;4.91;78.49
77288;BME280;66345;42.694;23.346;2024-03-08T04:42:20;95618.69;;;4.90;78.60
77288;BME280;66345;42.694;23.346;2024-03-08T04:44:47;95622.31;;;5.07;78.55
77288;BME280;66345;42.694;23.346;2024-03-08T04:47:12;95605.75;;;4.97;78.80
77288;BME280;66345;42.694;23.346;2024-03-08T04:49:38;95630.59;;;5.20;78.85
77288;BME280;66345;42.694;23.346;2024-03-08T04:52:04;95615.06;;;5.09;79.08
77288;BME280;66345;42.694;23.346;2024-03-08T04:54:30;95631.97;;;5.24;79.08
77288;BME280;66345;42.694;23.346;2024-03-08T04:56:56;95629.66;;;5.21;79.47
77288;BME280;66345;42.694;23.346;2024-03-08T04:59:21;95623.09;;;5.25;78.35
77288;BME280;66345;42.694;23.346;2024-03-08T05:01:47;95633.84;;;5.32;78.16
77288;BME280;66345;42.694;23.346;2024-03-08T05:04:13;95626.56;;;5.26;78.57
77288;BME280;66345;42.694;23.346;2024-03-08T05:06:39;95642.94;;;5.38;79.28
77288;BME280;66345;42.694;23.346;2024-03-08T05:09:04;95640.66;;;5.43;79.87
77288;BME280;66345;42.694;23.346;2024-03-08T05:11:48;95634.22;;;5.37;79.46
77288;BME280;66345;42.694;23.346;2024-03-08T05:14:15;95652.38;;;5.48;78.42
77288;BME280;66345;42.694;23.346;2024-03-08T05:16:48;95657.03;;;5.54;78.82
77288;BME280;66345;42.694;23.346;2024-03-08T05:19:17;95636.31;;;5.34;78.07
77288;BME280;66345;42.694;23.346;2024-03-08T05:21:47;95655.66;;;5.50;77.85
77288;BME280;66345;42.694;23.346;2024-03-08T05:24:13;95663.34;;;5.44;76.48
77288;BME280;66345;42.694;23.346;2024-03-08T05:26:39;95662.09;;;5.12;77.56
77288;BME280;66345;42.694;23.346;2024-03-08T05:29:05;95667.09;;;5.15;77.79
77288;BME280;66345;42.694;23.346;2024-03-08T05:31:56;95669.47;;;5.26;77.52
77288;BME280;66345;42.694;23.346;2024-03-08T05:34:23;95685.72;;;5.22;76.43
77288;BME280;66345;42.694;23.346;2024-03-08T05:36:49;95679.63;;;5.21;76.46
77288;BME280;66345;42.694;23.346;2024-03-08T05:39:16;95682.03;;;5.33;77.14
77288;BME280;66345;42.694;23.346;2024-03-08T05:41:43;95693.06;;;5.18;76.34
77288;BME280;66345;42.694;23.346;2024-03-08T05:44:09;95695.50;;;5.29;75.04
77288;BME280;66345;42.694;23.346;2024-03-08T05:46:36;95694.56;;;5.39;76.42
77288;BME280;66345;42.694;23.346;2024-03-08T05:49:05;95699.97;;;5.19;74.87
77288;BME280;66345;42.694;23.346;2024-03-08T05:51:34;95697.66;;;5.16;75.56
77288;BME280;66345;42.694;23.346;2024-03-08T05:54:05;95708.41;;;5.23;76.05
77288;BME280;66345;42.694;23.346;2024-03-08T05:56:33;95695.41;;;5.21;76.26
77288;BME280;66345;42.694;23.346;2024-03-08T05:58:59;95700.94;;;5.36;75.93
77288;BME280;66345;42.694;23.346;2024-03-08T06:01:25;95715.97;;;5.44;76.15
77288;BME280;66345;42.694;23.346;2024-03-08T06:03:52;95714.78;;;5.56;76.56
77288;BME280;66345;42.694;23.346;2024-03-08T06:06:20;95720.34;;;5.53;75.89
77288;BME280;66345;42.694;23.346;2024-03-08T06:08:47;95715.78;;;5.37;74.97
77288;BME280;66345;42.694;23.346;2024-03-08T06:11:14;95713.84;;;5.21;73.55
77288;BME280;66345;42.694;23.346;2024-03-08T06:13:40;95711.94;;;5.32;73.02
77288;BME280;66345;42.694;23.346;2024-03-08T06:16:06;95726.44;;;5.36;73.21
77288;BME280;66345;42.694;23.346;2024-03-08T06:18:36;95730.44;;;5.22;73.70
77288;BME280;66345;42.694;23.346;2024-03-08T06:21:05;95737.88;;;5.26;73.72
77288;BME280;66345;42.694;23.346;2024-03-08T06:23:35;95729.75;;;5.20;73.79
77288;BME280;66345;42.694;23.346;2024-03-08T06:26:09;95736.91;;;5.45;73.95
77288;BME280;66345;42.694;23.346;2024-03-08T06:28:35;95735.41;;;5.25;73.38
77288;BME280;66345;42.694;23.346;2024-03-08T06:31:01;95732.44;;;5.28;74.09
77288;BME280;66345;42.694;23.346;2024-03-08T06:33:27;95736.13;;;5.17;73.90
77288;BME280;66345;42.694;23.346;2024-03-08T06:35:53;95728.84;;;5.11;74.24
77288;BME280;66345;42.694;23.346;2024-03-08T06:38:25;95737.94;;;5.35;74.67
77288;BME280;66345;42.694;23.346;2024-03-08T06:40:54;95745.75;;;5.26;74.84
77288;BME280;66345;42.694;23.346;2024-03-08T06:43:20;95744.50;;;5.31;74.48
77288;BME280;66345;42.694;23.346;2024-03-08T06:45:46;95743.94;;;5.27;73.96
77288;BME280;66345;42.694;23.346;2024-03-08T06:48:17;95745.56;;;5.38;74.57
77288;BME280;66345;42.694;23.346;2024-03-08T06:50:47;95734.34;;;5.36;73.56
77288;BME280;66345;42.694;23.346;2024-03-08T06:53:13;95749.38;;;5.61;72.40
77288;BME280;66345;42.694;23.346;2024-03-08T06:55:39;95760.59;;;5.45;72.31
77288;BME280;66345;42.694;23.346;2024-03-08T06:58:05;95758.38;;;5.58;71.92
77288;BME280;66345;42.694;23.346;2024-03-08T07:00:32;95733.81;;;5.32;73.00
77288;BME280;66345;42.694;23.346;2024-03-08T07:02:57;95736.22;;;5.61;72.69
77288;BME280;66345;42.694;23.346;2024-03-08T07:05:27;95756.06;;;5.91;70.73
77288;BME280;66345;42.694;23.346;2024-03-08T07:07:52;95746.50;;;5.72;70.55
77288;BME280;66345;42.694;23.346;2024-03-08T07:10:22;95750.81;;;5.55;72.36
77288;BME280;66345;42.694;23.346;2024-03-08T07:12:51;95733.88;;;5.58;71.35
77288;BME280;66345;42.694;23.346;2024-03-08T07:15:18;95740.88;;;5.67;71.09
77288;BME280;66345;42.694;23.346;2024-03-08T07:17:45;95750.66;;;5.93;71.11
77288;BME280;66345;42.694;23.346;2024-03-08T07:20:12;95747.03;;;5.94;70.25
77288;BME280;66345;42.694;23.346;2024-03-08T07:22:39;95762.06;;;5.83;70.49
77288;BME280;66345;42.694;23.346;2024-03-08T07:25:08;95743.50;;;5.67;71.00
77288;BME280;66345;42.694;23.346;2024-03-08T07:27:34;95768.50;;;5.89;70.85
77288;BME280;66345;42.694;23.346;2024-03-08T07:30:04;95761.69;;;5.96;70.56
77288;BME280;66345;42.694;23.346;2024-03-08T07:32:30;95770.06;;;5.92;71.02
77288;BME280;66345;42.694;23.346;2024-03-08T07:34:57;95776.44;;;6.07;71.37
77288;BME280;66345;42.694;23.346;2024-03-08T07:37:22;95767.19;;;6.29;71.31
77288;BME280;66345;42.694;23.346;2024-03-08T07:39:48;95767.66;;;6.24;70.04
77288;BME280;66345;42.694;23.346;2024-03-08T07:42:14;95776.53;;;6.23;71.51
77288;BME280;66345;42.694;23.346;2024-03-08T07:44:39;95780.44;;;6.19;71.05
77288;BME280;66345;42.694;23.346;2024-03-08T07:47:05;95774.06;;;6.22;72.19
77288;BME280;66345;42.694;23.346;2024-03-08T07:49:35;95771.44;;;6.04;72.01
77288;BME280;66345;42.694;23.346;2024-03-08T07:52:00;95769.50;;;6.32;70.27
77288;BME280;66345;42.694;23.346;2024-03-08T07:54:26;95773.53;;;6.18;69.30
77288;BME280;66345;42.694;23.346;2024-03-08T07:56:51;95766.31;;;6.20;70.16
77288;BME280;66345;42.694;23.346;2024-03-08T07:59:18;95768.13;;;6.46;69.36
77288;BME280;66345;42.694;23.346;2024-03-08T08:01:44;95751.69;;;6.52;69.69
77288;BME280;66345;42.694;23.346;2024-03-08T08:04:10;95744.38;;;6.46;68.56
77288;BME280;66345;42.694;23.346;2024-03-08T08:06:40;95768.44;;;6.77;67.14
77288;BME280;66345;42.694;23.346;2024-03-08T08:09:09;95758.88;;;6.50;67.56
77288;BME280;66345;42.694;23.346;2024-03-08T08:11:42;95762.25;;;7.02;65.92
77288;BME280;66345;42.694;23.346;2024-03-08T08:14:10;95749.59;;;7.14;65.52
77288;BME280;66345;42.694;23.346;2024-03-08T08:16:36;95741.25;;;7.51;63.60
77288;BME280;66345;42.694;23.346;2024-03-08T08:19:03;95758.94;;;7.99;61.66
77288;BME280;66345;42.694;23.346;2024-03-08T08:21:36;95755.13;;;8.18;60.35
77288;BME280;66345;42.694;23.346;2024-03-08T08:24:04;95759.22;;;8.29;60.10
77288;BME280;66345;42.694;23.346;2024-03-08T08:26:30;95761.94;;;8.76;58.51
77288;BME280;66345;42.694;23.346;2024-03-08T08:28:56;95748.47;;;9.02;58.37
77288;BME280;66345;42.694;23.346;2024-03-08T08:31:21;95724.19;;;8.90;57.10
77288;BME280;66345;42.694;23.346;2024-03-08T08:33:47;95739.38;;;8.57;58.06
77288;BME280;66345;42.694;23.346;2024-03-08T08:36:15;95757.88;;;9.36;56.69
77288;BME280;66345;42.694;23.346;2024-03-08T08:38:41;95742.41;;;9.93;53.70
77288;BME280;66345;42.694;23.346;2024-03-08T08:41:09;95741.38;;;9.80;54.47
77288;BME280;66345;42.694;23.346;2024-03-08T08:43:36;95751.00;;;9.95;53.97
77288;BME280;66345;42.694;23.346;2024-03-08T08:46:02;95748.50;;;10.40;52.36
77288;BME280;66345;42.694;23.346;2024-03-08T08:48:27;95747.13;;;11.03;51.25
77288;BME280;66345;42.694;23.346;2024-03-08T08:50:56;95747.31;;;10.72;51.43
77288;BME280;66345;42.694;23.346;2024-03-08T08:53:21;95727.47;;;11.91;48.02
77288;BME280;66345;42.694;23.346;2024-03-08T08:55:47;95732.56;;;11.71;49.36
77288;BME280;66345;42.694;23.346;2024-03-08T08:58:13;95720.03;;;12.08;48.28
77288;BME280;66345;42.694;23.346;2024-03-08T09:00:39;95719.69;;;11.32;49.48
77288;BME280;66345;42.694;23.346;2024-03-08T09:03:05;95720.94;;;11.72;48.26
77288;BME280;66345;42.694;23.346;2024-03-08T09:05:32;95728.34;;;12.47;45.77
77288;BME280;66345;42.694;23.346;2024-03-08T09:07:59;95712.94;;;13.19;44.04
77288;BME280;66345;42.694;23.346;2024-03-08T09:10:25;95721.13;;;13.72;43.32
77288;BME280;66345;42.694;23.346;2024-03-08T09:12:51;95706.16;;;13.97;41.86
77288;BME280;66345;42.694;23.346;2024-03-08T09:15:16;95729.72;;;13.74;43.65
77288;BME280;66345;42.694;23.346;2024-03-08T09:17:43;95716.59;;;13.66;44.01
77288;BME280;66345;42.694;23.346;2024-03-08T09:20:10;95719.94;;;14.14;42.09
77288;BME280;66345;42.694;23.346;2024-03-08T09:22:40;95710.91;;;14.28;41.98
77288;BME280;66345;42.694;23.346;2024-03-08T09:25:05;95731.84;;;14.18;42.17
77288;BME280;66345;42.694;23.346;2024-03-08T09:27:32;95703.53;;;15.98;38.67
77288;BME280;66345;42.694;23.346;2024-03-08T09:29:59;95714.69;;;16.45;36.70
77288;BME280;66345;42.694;23.346;2024-03-08T09:32:25;95722.91;;;16.25;37.68
77288;BME280;66345;42.694;23.346;2024-03-08T09:34:51;95708.78;;;17.04;36.15
77288;BME280;66345;42.694;23.346;2024-03-08T09:37:17;95699.13;;;16.10;37.47
77288;BME280;66345;42.694;23.346;2024-03-08T09:39:44;95712.47;;;16.42;37.83
77288;BME280;66345;42.694;23.346;2024-03-08T09:42:10;95703.00;;;17.37;34.88
77288;BME280;66345;42.694;23.346;2024-03-08T09:44:44;95708.63;;;16.81;35.20
77288;BME280;66345;42.694;23.346;2024-03-08T09:47:09;95712.88;;;16.88;35.66
77288;BME280;66345;42.694;23.346;2024-03-08T09:49:39;95713.47;;;17.09;35.17
77288;BME280;66345;42.694;23.346;2024-03-08T09:52:06;95722.94;;;18.08;32.76
77288;BME280;66345;42.694;23.346;2024-03-08T09:54:32;95711.88;;;15.38;37.85
77288;BME280;66345;42.694;23.346;2024-03-08T09:56:59;95725.91;;;18.30;33.46
77288;BME280;66345;42.694;23.346;2024-03-08T09:59:24;95715.84;;;19.31;31.38
77288;BME280;66345;42.694;23.346;2024-03-08T10:01:52;95705.63;;;21.19;29.01
77288;BME280;66345;42.694;23.346;2024-03-08T10:04:22;95710.81;;;21.04;29.06
77288;BME280;66345;42.694;23.346;2024-03-08T10:06:47;95718.47;;;18.02;31.07
77288;BME280;66345;42.694;23.346;2024-03-08T10:09:14;95709.63;;;15.80;36.59
77288;BME280;66345;42.694;23.346;2024-03-08T10:11:43;95747.25;;;14.49;39.48
77288;BME280;66345;42.694;23.346;2024-03-08T10:14:09;95717.34;;;15.12;39.04
77288;BME280;66345;42.694;23.346;2024-03-08T10:16:36;95731.72;;;16.00;36.80
77288;BME280;66345;42.694;23.346;2024-03-08T10:19:01;95729.84;;;17.19;34.36
77288;BME280;66345;42.694;23.346;2024-03-08T10:21:28;95712.06;;;16.13;35.74
77288;BME280;66345;42.694;23.346;2024-03-08T10:23:54;95725.69;;;14.44;40.35
77288;BME280;66345;42.694;23.346;2024-03-08T10:26:21;95730.19;;;14.70;40.04
77288;BME280;66345;42.694;23.346;2024-03-08T10:28:51;95721.16;;;14.71;39.00
77288;BME280;66345;42.694;23.346;2024-03-08T10:31:19;95701.66;;;14.04;41.39
77288;BME280;66345;42.694;23.346;2024-03-08T10:33:45;95719.31;;;15.36;38.26
77288;BME280;66345;42.694;23.346;2024-03-08T10:36:13;95712.09;;;15.81;37.22
77288;BME280;66345;42.694;23.346;2024-03-08T10:38:40;95723.00;;;14.57;39.50
77288;BME280;66345;42.694;23.346;2024-03-08T10:41:10;95716.81;;;13.10;42.68
77288;BME280;66345;42.694;23.346;2024-03-08T10:43:57;95720.03;;;13.05;42.82
77288;BME280;66345;42.694;23.346;2024-03-08T10:49:21;95705.91;;;13.66;41.48
77288;BME280;66345;42.694;23.346;2024-03-08T10:51:49;95699.44;;;12.44;44.47
77288;BME280;66345;42.694;23.346;2024-03-08T10:54:18;95705.16;;;11.49;46.63
77288;BME280;66345;42.694;23.346;2024-03-08T10:56:46;95723.97;;;11.33;48.74
77288;BME280;66345;42.694;23.346;2024-03-08T10:59:14;95719.84;;;11.45;47.93
77288;BME280;66345;42.694;23.346;2024-03-08T11:01:40;95708.38;;;12.09;45.77
77288;BME280;66345;42.694;23.346;2024-03-08T11:04:05;95709.59;;;12.06;45.02
77288;BME280;66345;42.694;23.346;2024-03-08T11:11:47;95697.44;;;11.18;47.70
77288;BME280;66345;42.694;23.346;2024-03-08T11:14:43;95694.31;;;10.78;48.36
77288;BME280;66345;42.694;23.346;2024-03-08T11:17:09;95691.03;;;10.76;48.88
77288;BME280;66345;42.694;23.346;2024-03-08T11:19:35;95676.94;;;10.76;48.82
77288;BME280;66345;42.694;23.346;2024-03-08T11:22:02;95677.69;;;10.70;48.79
77288;BME280;66345;42.694;23.346;2024-03-08T11:24:28;95694.44;;;10.41;48.84
77288;BME280;66345;42.694;23.346;2024-03-08T11:27:03;95680.38;;;9.65;49.69
77288;BME280;66345;42.694;23.346;2024-03-08T11:32:11;95685.13;;;10.07;49.57
77288;BME280;66345;42.694;23.346;2024-03-08T11:34:39;95675.56;;;10.21;48.36
77288;BME280;66345;42.694;23.346;2024-03-08T11:37:12;95645.91;;;10.02;48.50
77288;BME280;66345;42.694;23.346;2024-03-08T11:42:15;95681.03;;;9.82;49.11
77288;BME280;66345;42.694;23.346;2024-03-08T11:44:43;95644.09;;;10.18;48.51
77288;BME280;66345;42.694;23.346;2024-03-08T11:47:12;95653.78;;;10.11;48.41
77288;BME280;66345;42.694;23.346;2024-03-08T11:49:39;95671.19;;;9.76;49.02
77288;BME280;66345;42.694;23.346;2024-03-08T11:52:13;95673.88;;;9.44;49.78
77288;BME280;66345;42.694;23.346;2024-03-08T11:54:43;95668.13;;;9.41;49.90
77288;BME280;66345;42.694;23.346;2024-03-08T11:57:12;95671.41;;;9.66;49.40
77288;BME280;66345;42.694;23.346;2024-03-08T11:59:38;95653.78;;;9.35;50.09
77288;BME280;66345;42.694;23.346;2024-03-08T12:02:07;95654.38;;;9.23;50.27
77288;BME280;66345;42.694;23.346;2024-03-08T12:04:36;95670.13;;;9.62;50.57
77288;BME280;66345;42.694;23.346;2024-03-08T12:07:02;95640.66;;;9.80;49.40
77288;BME280;66345;42.694;23.346;2024-03-08T12:09:34;95665.66;;;10.00;48.41
77288;BME280;66345;42.694;23.346;2024-03-08T12:12:02;95644.50;;;9.77;48.59
77288;BME280;66345;42.694;23.346;2024-03-08T12:14:30;95646.16;;;9.93;48.85
77288;BME280;66345;42.694;23.346;2024-03-08T12:16:57;95658.06;;;10.12;48.26
77288;BME280;66345;42.694;23.346;2024-03-08T12:19:23;95668.31;;;10.00;48.98
77288;BME280;66345;42.694;23.346;2024-03-08T12:21:48;95658.63;;;10.07;49.95
77288;BME280;66345;42.694;23.346;2024-03-08T12:24:16;95640.06;;;10.07;49.75
77288;BME280;66345;42.694;23.346;2024-03-08T12:26:45;95648.53;;;9.88;50.93
77288;BME280;66345;42.694;23.346;2024-03-08T12:29:29;95664.22;;;9.74;51.38
77288;BME280;66345;42.694;23.346;2024-03-08T12:31:58;95660.34;;;9.62;51.98
77288;BME280;66345;42.694;23.346;2024-03-08T12:34:26;95655.59;;;9.35;52.32
77288;BME280;66345;42.694;23.346;2024-03-08T12:36:58;95654.06;;;9.17;51.53
77288;BME280;66345;42.694;23.346;2024-03-08T12:39:23;95638.75;;;9.05;52.39
77288;BME280;66345;42.694;23.346;2024-03-08T12:41:53;95649.22;;;9.44;52.24
77288;BME280;66345;42.694;23.346;2024-03-08T12:44:20;95661.31;;;9.01;52.50
77288;BME280;66345;42.694;23.346;2024-03-08T12:46:47;95653.31;;;9.09;52.24
77288;BME280;66345;42.694;23.346;2024-03-08T12:49:14;95648.72;;;9.26;52.18
77288;BME280;66345;42.694;23.346;2024-03-08T12:51:46;95638.94;;;9.03;51.81
77288;BME280;66345;42.694;23.346;2024-03-08T12:54:12;95645.75;;;9.21;51.49
77288;BME280;66345;42.694;23.346;2024-03-08T12:56:38;95616.00;;;9.18;51.97
77288;BME280;66345;42.694;23.346;2024-03-08T12:59:05;95623.53;;;9.30;51.20
77288;BME280;66345;42.694;23.346;2024-03-08T13:01:32;95645.06;;;9.27;51.33
77288;BME280;66345;42.694;23.346;2024-03-08T13:03:59;95636.13;;;9.28;51.26
77288;BME280;66345;42.694;23.346;2024-03-08T13:06:25;95619.16;;;9.37;50.98
77288;BME280;66345;42.694;23.346;2024-03-08T13:08:51;95633.47;;;9.28;51.29
77288;BME280;66345;42.694;23.346;2024-03-08T13:11:17;95643.03;;;9.52;50.59
77288;BME280;66345;42.694;23.346;2024-03-08T13:13:45;95648.03;;;9.32;50.67
77288;BME280;66345;42.694;23.346;2024-03-08T13:16:11;95640.72;;;9.34;50.55